createdAt,value
2019-05-23T00:01:52.151Z,8.67
2019-05-23T00:05:00.022Z,8.55
2019-05-23T00:07:45.914Z,8.54
2019-05-23T00:10:37.715Z,8.35
2019-05-23T00:13:53.761Z,8.26
2019-05-23T00:16:23.093Z,8.21
2019-05-23T00:18:51.337Z,8.19
2019-05-23T00:21:20.331Z,8.18
2019-05-23T00:23:48.127Z,8.09
2019-05-23T00:26:15.981Z,8.05
2019-05-23T00:28:44.223Z,8.09
2019-05-23T00:31:23.427Z,8.06
2019-05-23T00:33:51.526Z,7.85
2019-05-23T00:36:20.608Z,7.86
2019-05-23T00:38:49.184Z,7.81
2019-05-23T00:41:19.160Z,7.76
2019-05-23T00:43:46.405Z,7.65
2019-05-23T00:46:14.242Z,7.57
2019-05-23T00:48:42.139Z,7.56
2019-05-23T00:51:11.285Z,7.49
2019-05-23T00:53:38.653Z,7.56
2019-05-23T00:56:08.543Z,7.48
2019-05-23T00:58:36.579Z,7.53
2019-05-23T01:01:03.972Z,7.46
2019-05-23T01:03:31.559Z,7.41
2019-05-23T01:05:59.580Z,7.46
2019-05-23T01:08:29.859Z,7.59
2019-05-23T01:10:57.147Z,7.64
2019-05-23T01:13:24.933Z,7.63
2019-05-23T01:15:54.423Z,7.63
2019-05-23T01:18:22.217Z,7.61
2019-05-23T01:21:07.758Z,7.60
2019-05-23T01:23:38.106Z,7.61
2019-05-23T01:26:05.683Z,7.50
2019-05-23T01:28:33.429Z,7.47
2019-05-23T01:31:05.533Z,7.42
2019-05-23T01:33:33.224Z,7.25
2019-05-23T01:36:01.249Z,7.19
2019-05-23T01:38:29.595Z,7.20
2019-05-23T01:40:57.458Z,7.14
2019-05-23T01:43:25.241Z,7.13
2019-05-23T01:45:52.637Z,7.07
2019-05-23T01:48:20.065Z,7.22
2019-05-23T01:50:48.260Z,7.20
2019-05-23T01:53:15.715Z,7.10
2019-05-23T01:55:43.823Z,6.99
2019-05-23T01:58:11.106Z,6.97
2019-05-23T02:00:39.392Z,6.93
2019-05-23T02:03:06.742Z,6.99
2019-05-23T02:05:34.308Z,6.99
2019-05-23T02:08:02.327Z,6.90
2019-05-23T02:10:29.910Z,6.91
2019-05-23T02:12:57.932Z,6.91
2019-05-23T02:15:26.425Z,6.90
2019-05-23T02:17:54.044Z,6.96
2019-05-23T02:20:21.876Z,7.03
2019-05-23T02:22:49.711Z,7.07
2019-05-23T02:25:18.823Z,7.22
2019-05-23T02:27:46.434Z,7.34
2019-05-23T02:30:33.037Z,7.36
2019-05-23T02:32:45.590Z,7.40
2019-05-23T02:35:12.832Z,7.38
2019-05-23T02:38:03.906Z,7.33
2019-05-23T02:40:39.904Z,7.26
2019-05-23T02:43:08.375Z,7.12
2019-05-23T02:45:42.114Z,7.02
2019-05-23T02:48:11.193Z,7.03
2019-05-23T02:50:48.570Z,6.85
2019-05-23T02:53:16.453Z,6.60
2019-05-23T02:55:45.631Z,6.49
2019-05-23T02:58:28.100Z,6.36
2019-05-23T03:01:23.367Z,6.29
2019-05-23T03:03:51.431Z,6.14
2019-05-23T03:06:18.790Z,6.16
2019-05-23T03:08:47.988Z,6.08
2019-05-23T03:11:51.923Z,6.02
2019-05-23T03:14:19.565Z,6.06
2019-05-23T03:16:51.435Z,6.09
2019-05-23T03:19:31.801Z,6.03
2019-05-23T03:22:27.461Z,6.06
2019-05-23T03:24:57.003Z,6.07
2019-05-23T03:27:25.789Z,6.07
2019-05-23T03:29:53.843Z,6.02
2019-05-23T03:32:37.318Z,5.99
2019-05-23T03:35:08.707Z,5.96
2019-05-23T03:37:35.933Z,6.01
2019-05-23T03:40:04.230Z,6.06
2019-05-23T03:42:31.508Z,6.11
2019-05-23T03:44:59.335Z,6.08
2019-05-23T03:47:28.501Z,5.96
2019-05-23T03:49:57.895Z,5.99
2019-05-23T03:52:26.712Z,5.89
2019-05-23T03:54:55.942Z,5.93
2019-05-23T03:57:25.933Z,5.99
2019-05-23T03:59:53.455Z,6.15
2019-05-23T04:02:25.377Z,6.14
2019-05-23T04:04:53.214Z,6.15
2019-05-23T04:07:20.950Z,6.29
2019-05-23T04:09:48.325Z,6.40
2019-05-23T04:12:15.687Z,6.50
2019-05-23T04:14:45.134Z,6.40
2019-05-23T04:17:12.600Z,6.49
2019-05-23T04:19:40.159Z,6.49
2019-05-23T04:22:07.619Z,6.54
2019-05-23T04:24:35.006Z,6.60
2019-05-23T04:27:02.589Z,6.69
2019-05-23T04:29:29.863Z,6.73
2019-05-23T04:32:07.932Z,6.82
2019-05-23T04:34:26.705Z,6.95
2019-05-23T04:36:54.923Z,7.05
2019-05-23T04:39:22.311Z,7.14
2019-05-23T04:41:49.753Z,7.21
2019-05-23T04:44:17.808Z,7.30
2019-05-23T04:46:45.080Z,7.46
2019-05-23T04:49:12.523Z,7.58
2019-05-23T04:51:40.926Z,7.71
2019-05-23T04:54:08.327Z,7.90
2019-05-23T04:56:35.991Z,8.04
2019-05-23T04:59:05.585Z,8.27
2019-05-23T05:01:38.811Z,8.44
2019-05-23T05:04:08.966Z,8.59
2019-05-23T05:06:40.854Z,8.78
2019-05-23T05:09:12.943Z,9.03
2019-05-23T05:11:44.366Z,9.23
2019-05-23T05:14:11.783Z,9.43
2019-05-23T05:16:39.068Z,9.84
2019-05-23T05:19:06.444Z,10.28
2019-05-23T05:21:33.780Z,10.73
2019-05-23T05:24:01.025Z,11.20
2019-05-23T05:26:29.578Z,11.56
2019-05-23T05:28:56.842Z,11.96
2019-05-23T05:31:24.076Z,12.35
2019-05-23T05:33:51.494Z,12.62
2019-05-23T05:36:18.899Z,12.88
2019-05-23T05:38:46.139Z,13.08
2019-05-23T05:41:14.030Z,13.38
2019-05-23T05:43:43.216Z,13.65
2019-05-23T05:46:12.456Z,13.93
2019-05-23T05:48:41.784Z,14.20
2019-05-23T05:51:09.935Z,14.50
2019-05-23T05:53:37.644Z,14.78
2019-05-23T05:56:05.229Z,14.88
2019-05-23T05:58:32.878Z,15.15
2019-05-23T06:01:02.150Z,15.35
2019-05-23T06:03:29.950Z,15.38
2019-05-23T06:06:15.411Z,15.52
2019-05-23T06:08:43.957Z,15.64
2019-05-23T06:11:12.317Z,15.76
2019-05-23T06:13:39.699Z,15.86
2019-05-23T06:16:07.095Z,15.98
2019-05-23T06:18:34.833Z,15.97
2019-05-23T06:21:03.364Z,16.09
2019-05-23T06:23:31.295Z,16.26
2019-05-23T06:25:58.543Z,16.41
2019-05-23T06:28:25.943Z,16.56
2019-05-23T06:30:53.805Z,16.76
2019-05-23T06:33:24.145Z,16.98
2019-05-23T06:35:51.559Z,17.21
2019-05-23T06:38:19.581Z,17.52
2019-05-23T06:40:47.301Z,17.71
2019-05-23T06:43:14.954Z,17.90
2019-05-23T06:45:42.743Z,18.09
2019-05-23T06:48:12.765Z,18.18
2019-05-23T06:50:40.013Z,18.23
2019-05-23T06:53:07.385Z,18.43
2019-05-23T06:55:34.722Z,18.66
2019-05-23T06:58:02.415Z,18.74
2019-05-23T07:00:30.226Z,18.72
2019-05-23T07:02:57.543Z,18.70
2019-05-23T07:05:29.462Z,18.77
2019-05-23T07:07:57.841Z,18.75
2019-05-23T07:10:27.504Z,18.87
2019-05-23T07:12:56.199Z,18.97
2019-05-23T07:15:25.678Z,19.00
2019-05-23T07:17:55.317Z,19.14
2019-05-23T07:20:22.842Z,19.39
2019-05-23T07:22:50.183Z,19.55
2019-05-23T07:25:17.511Z,19.63
2019-05-23T07:27:45.009Z,19.77
2019-05-23T07:30:17.095Z,19.85
2019-05-23T07:32:44.372Z,19.88
2019-05-23T07:35:11.754Z,20.13
2019-05-23T07:37:39.109Z,20.41
2019-05-23T07:40:06.680Z,20.78
2019-05-23T07:42:34.354Z,21.01
2019-05-23T07:45:03.568Z,21.30
2019-05-23T07:47:31.272Z,21.63
2019-05-23T07:49:58.527Z,21.94
2019-05-23T07:52:26.092Z,22.06
2019-05-23T07:54:58.688Z,22.23
2019-05-23T07:57:26.567Z,22.32
2019-05-23T07:59:54.438Z,22.58
2019-05-23T08:02:30.129Z,22.64
2019-05-23T08:04:57.369Z,22.72
2019-05-23T08:07:25.890Z,22.71
2019-05-23T08:09:53.146Z,22.87
2019-05-23T08:12:20.682Z,22.97
2019-05-23T08:14:47.980Z,23.15
2019-05-23T08:17:16.278Z,23.16
2019-05-23T08:19:49.747Z,23.22
2019-05-23T08:22:12.724Z,22.97
2019-05-23T08:24:40.783Z,22.89
2019-05-23T08:27:08.289Z,22.84
2019-05-23T08:29:35.991Z,22.77
2019-05-23T08:32:03.500Z,22.63
2019-05-23T08:34:41.625Z,22.77
2019-05-23T08:37:00.264Z,22.83
2019-05-23T08:39:28.516Z,22.83
2019-05-23T08:41:56.547Z,23.16
2019-05-23T08:44:24.039Z,23.52
2019-05-23T08:46:51.405Z,23.79
2019-05-23T08:49:18.742Z,23.92
2019-05-23T08:51:46.124Z,23.89
2019-05-23T08:54:13.479Z,24.02
2019-05-23T08:56:41.311Z,24.11
2019-05-23T08:59:10.168Z,23.93
2019-05-23T09:01:37.825Z,24.08
2019-05-23T09:04:05.660Z,24.64
2019-05-23T09:06:34.791Z,24.78
2019-05-23T09:09:04.049Z,24.26
2019-05-23T09:11:32.313Z,24.47
2019-05-23T09:14:00.274Z,24.26
2019-05-23T09:16:27.642Z,24.07
2019-05-23T09:18:55.017Z,24.51
2019-05-23T09:21:22.506Z,24.69
2019-05-23T09:23:49.803Z,24.59
2019-05-23T09:26:17.216Z,24.98
2019-05-23T09:28:45.001Z,25.35
2019-05-23T09:31:12.456Z,25.23
2019-05-23T09:33:48.754Z,24.73
2019-05-23T09:36:16.179Z,25.21
2019-05-23T09:38:47.240Z,25.44
2019-05-23T09:41:14.833Z,24.95
2019-05-23T09:43:42.101Z,24.48
2019-05-23T09:46:09.592Z,24.27
2019-05-23T09:48:36.874Z,23.60
2019-05-23T09:51:05.280Z,23.26
2019-05-23T09:53:32.653Z,23.55
2019-05-23T09:56:00.052Z,23.89
2019-05-23T09:58:27.523Z,24.13
2019-05-23T10:00:57.287Z,24.37
2019-05-23T10:03:24.779Z,24.21
2019-05-23T10:05:52.470Z,23.85
2019-05-23T10:08:19.746Z,23.80
2019-05-23T10:10:47.299Z,24.14
2019-05-23T10:13:16.331Z,23.85
2019-05-23T10:15:51.716Z,23.91
2019-05-23T10:18:22.613Z,23.59
2019-05-23T10:20:51.926Z,23.73
2019-05-23T10:23:21.151Z,22.79
2019-05-23T10:25:50.485Z,23.05
2019-05-23T10:28:20.655Z,22.97
2019-05-23T10:30:51.629Z,23.89
2019-05-23T10:33:20.713Z,24.61
2019-05-23T10:35:59.950Z,24.93
2019-05-23T10:38:20.905Z,25.25
2019-05-23T10:40:49.828Z,24.07
2019-05-23T10:43:20.365Z,24.21
2019-05-23T10:45:49.446Z,24.22
2019-05-23T10:48:18.769Z,25.18
2019-05-23T10:50:48.055Z,25.94
2019-05-23T10:53:17.606Z,26.12
2019-05-23T10:55:48.234Z,25.81
2019-05-23T10:58:17.684Z,25.50
2019-05-23T11:00:46.794Z,24.74
2019-05-23T11:03:15.825Z,24.87
2019-05-23T11:05:45.887Z,26.34
2019-05-23T11:08:16.749Z,26.66
2019-05-23T11:10:46.397Z,26.66
2019-05-23T11:13:15.116Z,27.11
2019-05-23T11:15:44.363Z,27.85
2019-05-23T11:18:13.930Z,28.37
2019-05-23T11:20:42.761Z,28.65
2019-05-23T11:23:14.240Z,28.03
2019-05-23T11:25:43.367Z,28.76
2019-05-23T11:28:12.331Z,29.02
2019-05-23T11:30:48.959Z,29.21
2019-05-23T11:33:19.257Z,29.69
2019-05-23T11:35:48.410Z,29.59
2019-05-23T11:38:16.144Z,28.80
2019-05-23T11:40:44.166Z,28.30
2019-05-23T11:43:11.541Z,28.20
2019-05-23T11:45:46.811Z,28.08
2019-05-23T11:48:20.183Z,28.26
2019-05-23T11:50:52.009Z,27.79
2019-05-23T11:53:21.439Z,28.75
2019-05-23T11:55:54.026Z,28.13
2019-05-23T11:58:18.663Z,29.20
2019-05-23T12:01:20.482Z,28.96
2019-05-23T12:03:42.262Z,28.77
2019-05-23T12:06:09.536Z,29.24
2019-05-23T12:08:36.806Z,29.75
2019-05-23T12:11:04.146Z,29.41
2019-05-23T12:13:31.531Z,28.49
2019-05-23T12:15:59.126Z,28.41
2019-05-23T12:18:26.501Z,27.65
2019-05-23T12:20:54.824Z,28.13
2019-05-23T12:23:22.095Z,28.87
2019-05-23T12:25:49.905Z,29.84
2019-05-23T12:28:17.622Z,29.88
2019-05-23T12:30:45.014Z,29.19
2019-05-23T12:33:12.384Z,30.56
2019-05-23T12:35:39.646Z,30.56
2019-05-23T12:38:07.451Z,30.53
2019-05-23T12:40:34.774Z,30.57
2019-05-23T12:43:03.180Z,30.34
2019-05-23T12:45:30.538Z,31.04
2019-05-23T12:48:02.639Z,30.74
2019-05-23T12:50:34.213Z,30.64
2019-05-23T12:53:01.671Z,30.80
2019-05-23T12:55:28.962Z,31.47
2019-05-23T12:57:56.191Z,30.34
2019-05-23T13:00:32.930Z,29.52
2019-05-23T13:03:00.201Z,29.49
2019-05-23T13:05:27.693Z,27.75
2019-05-23T13:07:54.924Z,27.98
2019-05-23T13:10:24.446Z,28.06
2019-05-23T13:12:51.438Z,28.03
2019-05-23T13:15:19.359Z,27.72
2019-05-23T13:17:46.683Z,27.33
2019-05-23T13:20:14.051Z,27.37
2019-05-23T13:22:41.557Z,27.57
2019-05-23T13:25:09.489Z,27.94
2019-05-23T13:27:37.356Z,28.04
2019-05-23T13:30:05.000Z,28.05
2019-05-23T13:32:32.674Z,27.37
2019-05-23T13:34:59.999Z,26.89
2019-05-23T13:37:29.186Z,27.17
2019-05-23T13:39:56.604Z,26.88
2019-05-23T13:42:24.000Z,27.23
2019-05-23T13:44:51.360Z,27.24
2019-05-23T13:47:18.770Z,27.35
2019-05-23T13:49:46.027Z,27.69
2019-05-23T13:52:13.420Z,28.70
2019-05-23T13:54:40.710Z,29.09
2019-05-23T13:57:08.978Z,29.81
2019-05-23T13:59:36.725Z,31.11
2019-05-23T14:02:05.953Z,31.73
2019-05-23T14:04:33.652Z,31.89
2019-05-23T14:07:01.127Z,32.23
2019-05-23T14:09:28.626Z,31.96
2019-05-23T14:12:19.973Z,31.13
2019-05-23T14:14:26.378Z,30.09
2019-05-23T14:17:16.137Z,29.25
2019-05-23T14:19:43.747Z,28.16
2019-05-23T14:22:11.206Z,28.28
2019-05-23T14:24:38.501Z,28.34
2019-05-23T14:27:16.144Z,29.32
2019-05-23T14:29:43.619Z,29.73
2019-05-23T14:32:30.531Z,29.75
2019-05-23T14:34:58.001Z,29.97
2019-05-23T14:37:31.448Z,29.80
2019-05-23T14:40:05.334Z,27.78
2019-05-23T14:42:59.368Z,26.91
2019-05-23T14:45:39.670Z,26.96
2019-05-23T14:48:29.900Z,26.49
2019-05-23T14:51:15.521Z,26.43
2019-05-23T14:53:46.825Z,25.82
2019-05-23T14:56:14.522Z,26.55
2019-05-23T14:58:41.889Z,27.49
2019-05-23T15:01:11.249Z,27.92
2019-05-23T15:03:39.107Z,28.06
2019-05-23T15:06:06.330Z,28.15
2019-05-23T15:08:50.345Z,27.13
2019-05-23T15:11:03.976Z,26.41
2019-05-23T15:13:31.242Z,26.71
2019-05-23T15:15:58.879Z,27.37
2019-05-23T15:18:26.194Z,27.70
2019-05-23T15:20:53.519Z,28.31
2019-05-23T15:23:20.830Z,28.63
2019-05-23T15:25:48.163Z,28.49
2019-05-23T15:28:15.465Z,28.20
2019-05-23T15:30:42.713Z,28.66
2019-05-23T15:33:10.105Z,28.53
2019-05-23T15:35:37.545Z,29.20
2019-05-23T15:38:04.834Z,29.00
2019-05-23T15:40:32.536Z,28.67
2019-05-23T15:42:59.922Z,29.36
2019-05-23T15:45:27.309Z,28.84
2019-05-23T15:47:54.712Z,29.26
2019-05-23T15:50:25.000Z,29.39
2019-05-23T15:53:04.734Z,30.48
2019-05-23T15:55:43.406Z,31.31
2019-05-23T15:58:33.220Z,30.96
2019-05-23T16:01:13.003Z,31.52
2019-05-23T16:03:42.961Z,31.60
2019-05-23T16:06:12.814Z,31.99
2019-05-23T16:08:40.243Z,32.16
2019-05-23T16:11:07.840Z,31.71
2019-05-23T16:13:35.441Z,31.43
2019-05-23T16:16:02.854Z,31.48
2019-05-23T16:18:30.649Z,31.26
2019-05-23T16:20:58.098Z,30.76
2019-05-23T16:23:25.579Z,30.89
2019-05-23T16:25:53.218Z,30.78
2019-05-23T16:28:21.281Z,30.89
2019-05-23T16:30:50.883Z,31.04
2019-05-23T16:33:18.768Z,31.02
2019-05-23T16:35:46.376Z,30.71
2019-05-23T16:38:14.126Z,30.68
2019-05-23T16:40:41.907Z,30.50
2019-05-23T16:43:10.005Z,30.30
2019-05-23T16:45:37.764Z,30.06
2019-05-23T16:48:06.255Z,29.89
2019-05-23T16:50:34.203Z,29.78
2019-05-23T16:53:01.995Z,29.88
2019-05-23T16:55:36.363Z,29.85
2019-05-23T16:58:11.895Z,29.72
2019-05-23T17:00:57.558Z,29.44
2019-05-23T17:03:36.567Z,28.91
2019-05-23T17:06:23.387Z,28.22
2019-05-23T17:09:13.373Z,27.71
2019-05-23T17:11:46.054Z,27.55
2019-05-23T17:14:21.624Z,27.02
2019-05-23T17:16:56.032Z,26.38
2019-05-23T17:19:36.853Z,25.92
2019-05-23T17:22:23.887Z,24.82
2019-05-23T17:25:10.849Z,25.02
2019-05-23T17:27:57.734Z,24.98
2019-05-23T17:30:47.534Z,24.72
2019-05-23T17:33:16.304Z,23.93
2019-05-23T17:35:43.683Z,23.53
2019-05-23T17:38:11.027Z,23.31
2019-05-23T17:40:38.356Z,23.13
2019-05-23T17:43:05.765Z,22.95
2019-05-23T17:45:34.176Z,22.84
2019-05-23T17:48:01.504Z,22.69
2019-05-23T17:50:29.482Z,22.53
2019-05-23T17:52:56.887Z,22.43
2019-05-23T17:55:25.652Z,22.28
2019-05-23T17:57:56.803Z,22.10
2019-05-23T18:00:26.609Z,21.97
2019-05-23T18:02:54.007Z,21.85
2019-05-23T18:05:21.481Z,21.79
2019-05-23T18:07:48.978Z,21.66
2019-05-23T18:10:17.133Z,21.56
2019-05-23T18:12:44.415Z,21.52
2019-05-23T18:15:12.921Z,21.52
2019-05-23T18:17:40.545Z,21.29
2019-05-23T18:20:08.086Z,21.18
2019-05-23T18:22:36.213Z,21.14
2019-05-23T18:25:11.435Z,21.04
2019-05-23T18:27:41.622Z,20.92
2019-05-23T18:30:15.386Z,20.78
2019-05-23T18:32:42.968Z,20.65
2019-05-23T18:35:11.607Z,20.58
2019-05-23T18:37:38.957Z,20.45
2019-05-23T18:40:06.275Z,20.36
2019-05-23T18:42:34.043Z,20.27
2019-05-23T18:45:01.632Z,20.18
2019-05-23T18:47:33.871Z,20.12
2019-05-23T18:50:01.753Z,20.03
2019-05-23T18:52:29.116Z,19.87
2019-05-23T18:54:56.566Z,19.79
2019-05-23T18:57:24.172Z,19.63
2019-05-23T18:59:51.521Z,19.43
2019-05-23T19:02:20.024Z,19.22
2019-05-23T19:04:47.863Z,19.04
2019-05-23T19:07:15.773Z,18.87
2019-05-23T19:09:43.224Z,18.73
2019-05-23T19:12:11.159Z,18.51
2019-05-23T19:14:38.454Z,18.35
2019-05-23T19:17:06.532Z,18.05
2019-05-23T19:19:34.850Z,17.84
2019-05-23T19:22:03.299Z,17.70
2019-05-23T19:24:31.399Z,17.55
2019-05-23T19:26:59.698Z,17.36
2019-05-23T19:29:27.159Z,17.17
2019-05-23T19:31:54.632Z,16.91
2019-05-23T19:34:31.397Z,16.79
2019-05-23T19:36:58.826Z,16.53
2019-05-23T19:39:26.378Z,16.37
2019-05-23T19:41:53.845Z,16.20
2019-05-23T19:44:21.112Z,16.02
2019-05-23T19:46:48.503Z,15.89
2019-05-23T19:49:16.280Z,15.67
2019-05-23T19:51:43.729Z,15.61
